首页
METAR-TAF:

METAR-TAF

机场 :

海參崴國際機場

海參崴, 俄罗斯

纬度: 43-07N, 经度: 131-56E, 海拔: 184米

当前天气观测

该预报发布于26分钟前的04:00 UTC
风速4节,风向西南,在西之间变化
温度 4°C
湿度 30%
气压 1019 hPa
能见度10公里或以上

METAR: UHWW 180400Z 23002MPS 190V270 9999 NSC 04/M12 Q1019 R25L/0///70 NOSIG RMK QFE763

时间: 14:26 (04:26 UTC)

预报

该预报发布于2小时和26分钟前的02:00 UTC
预报有效从18日的 03点(UTC)到 19日的 03点(UTC)
风速6节,风向西转西北
能见度10公里或以上
散云层高于4000英尺
短暂存在
从 18日的 03点(UTC)到 18日的 09点(UTC)
散云层高于3000英尺, 积雨云.
成为
从 18日的 10点(UTC)到 18日的 12点(UTC)
多云层高于1200英尺, 积雨云.

TAF: UHWW 180200Z 1803/1903 30003MPS 9999 SCT040 TEMPO 1803/1809 SCT030CB BECMG 1810/1812 BKN012CB

超过4000个机场的气象观测和天气预报(METAR&TAF报告)。

可查询的气象台以黄色和红色小点在地图上表示。

将鼠标移到小点上方,可查看气象台名称。

然后点击查看天气观测和预报。

如需切换地图:点击带黑十字的绿色按钮放大地图;点击带横线的绿色按钮缩小地图;或者点击绿色箭头查看邻近地区的地图。


METAR-TAF: